sensor_id;sensor_type;location;lat;lon;timestamp;temperature;humidity
47382;DHT22;33128;51.580;5.170;2024-03-23T00:53:44;11.50;99.90
47382;DHT22;33128;51.580;5.170;2024-03-23T00:56:10;11.50;99.90
47382;DHT22;33128;51.580;5.170;2024-03-23T00:58:36;11.40;99.90
47382;DHT22;33128;51.580;5.170;2024-03-23T01:01:01;11.40;99.90
47382;DHT22;33128;51.580;5.170;2024-03-23T01:03:29;11.40;99.90
47382;DHT22;33128;51.580;5.170;2024-03-23T01:06:03;11.40;99.90
47382;DHT22;33128;51.580;5.170;2024-03-23T01:08:29;11.50;99.90
47382;DHT22;33128;51.580;5.170;2024-03-23T01:10:58;11.40;99.90
47382;DHT22;33128;51.580;5.170;2024-03-23T01:13:25;11.40;99.90
47382;DHT22;33128;51.580;5.170;2024-03-23T01:15:55;11.40;99.90
47382;DHT22;33128;51.580;5.170;2024-03-23T01:18:21;11.20;99.90
47382;DHT22;33128;51.580;5.170;2024-03-23T01:20:47;11.20;99.90
47382;DHT22;33128;51.580;5.170;2024-03-23T01:23:14;11.20;99.90
47382;DHT22;33128;51.580;5.170;2024-03-23T01:25:42;11.10;99.90
47382;DHT22;33128;51.580;5.170;2024-03-23T01:28:08;11.10;99.90
47382;DHT22;33128;51.580;5.170;2024-03-23T01:30:34;11.10;99.90
47382;DHT22;33128;51.580;5.170;2024-03-23T01:33:00;11.30;99.90
47382;DHT22;33128;51.580;5.170;2024-03-23T01:35:26;11.30;99.90
47382;DHT22;33128;51.580;5.170;2024-03-23T01:37:52;11.10;99.90
47382;DHT22;33128;51.580;5.170;2024-03-23T01:40:17;11.10;99.90
47382;DHT22;33128;51.580;5.170;2024-03-23T01:42:55;11.00;99.90
47382;DHT22;33128;51.580;5.170;2024-03-23T01:45:21;11.10;99.90
47382;DHT22;33128;51.580;5.170;2024-03-23T01:47:49;11.10;99.90
47382;DHT22;33128;51.580;5.170;2024-03-23T01:50:15;11.20;99.90
47382;DHT22;33128;51.580;5.170;2024-03-23T01:52:43;11.30;99.90
47382;DHT22;33128;51.580;5.170;2024-03-23T01:55:09;11.30;99.90
47382;DHT22;33128;51.580;5.170;2024-03-23T01:57:35;11.30;99.90
47382;DHT22;33128;51.580;5.170;2024-03-23T02:00:01;11.20;99.90
47382;DHT22;33128;51.580;5.170;2024-03-23T02:02:26;11.20;99.90
47382;DHT22;33128;51.580;5.170;2024-03-23T02:04:52;11.20;99.90
47382;DHT22;33128;51.580;5.170;2024-03-23T02:07:17;11.10;99.90
47382;DHT22;33128;51.580;5.170;2024-03-23T02:09:44;11.00;99.90
47382;DHT22;33128;51.580;5.170;2024-03-23T02:12:10;10.90;99.90
47382;DHT22;33128;51.580;5.170;2024-03-23T02:14:35;10.90;99.90
47382;DHT22;33128;51.580;5.170;2024-03-23T02:17:01;10.90;99.90
47382;DHT22;33128;51.580;5.170;2024-03-23T02:19:27;11.00;99.90
47382;DHT22;33128;51.580;5.170;2024-03-23T02:21:52;11.00;99.90
47382;DHT22;33128;51.580;5.170;2024-03-23T02:24:18;11.00;99.90
47382;DHT22;33128;51.580;5.170;2024-03-23T02:26:43;10.90;99.90
47382;DHT22;33128;51.580;5.170;2024-03-23T02:29:09;10.80;99.90
47382;DHT22;33128;51.580;5.170;2024-03-23T02:31:35;10.80;99.90
47382;DHT22;33128;51.580;5.170;2024-03-23T02:34:01;10.80;99.90
47382;DHT22;33128;51.580;5.170;2024-03-23T02:36:26;10.80;99.90
47382;DHT22;33128;51.580;5.170;2024-03-23T02:38:52;10.80;99.90
47382;DHT22;33128;51.580;5.170;2024-03-23T02:41:17;10.70;99.90
47382;DHT22;33128;51.580;5.170;2024-03-23T02:43:49;10.80;99.90
47382;DHT22;33128;51.580;5.170;2024-03-23T02:46:15;10.60;99.90
47382;DHT22;33128;51.580;5.170;2024-03-23T02:48:40;10.70;99.90
47382;DHT22;33128;51.580;5.170;2024-03-23T02:51:06;10.80;99.90
47382;DHT22;33128;51.580;5.170;2024-03-23T02:53:32;10.80;99.90
47382;DHT22;33128;51.580;5.170;2024-03-23T02:55:58;10.90;99.90
47382;DHT22;33128;51.580;5.170;2024-03-23T02:58:24;11.00;99.90
47382;DHT22;33128;51.580;5.170;2024-03-23T03:00:50;11.00;99.90
47382;DHT22;33128;51.580;5.170;2024-03-23T03:03:15;10.80;99.90
47382;DHT22;33128;51.580;5.170;2024-03-23T03:05:41;10.80;99.90
47382;DHT22;33128;51.580;5.170;2024-03-23T03:08:09;10.90;99.90
47382;DHT22;33128;51.580;5.170;2024-03-23T03:10:35;10.80;99.90
47382;DHT22;33128;51.580;5.170;2024-03-23T03:13:02;10.80;99.90
47382;DHT22;33128;51.580;5.170;2024-03-23T03:15:34;10.80;99.90
47382;DHT22;33128;51.580;5.170;2024-03-23T03:17:59;10.70;99.90
47382;DHT22;33128;51.580;5.170;2024-03-23T03:20:28;10.70;99.90
47382;DHT22;33128;51.580;5.170;2024-03-23T03:22:56;10.60;99.90
47382;DHT22;33128;51.580;5.170;2024-03-23T03:25:25;10.50;99.90
47382;DHT22;33128;51.580;5.170;2024-03-23T03:27:50;10.30;99.90
47382;DHT22;33128;51.580;5.170;2024-03-23T03:30:16;10.30;99.90
47382;DHT22;33128;51.580;5.170;2024-03-23T03:32:41;10.40;99.90
47382;DHT22;33128;51.580;5.170;2024-03-23T03:35:07;10.20;99.90
47382;DHT22;33128;51.580;5.170;2024-03-23T03:37:33;10.20;99.90
47382;DHT22;33128;51.580;5.170;2024-03-23T03:39:58;10.30;99.90
47382;DHT22;33128;51.580;5.170;2024-03-23T03:42:27;10.40;99.90
47382;DHT22;33128;51.580;5.170;2024-03-23T03:44:52;10.30;99.90
47382;DHT22;33128;51.580;5.170;2024-03-23T03:47:19;10.20;99.90
47382;DHT22;33128;51.580;5.170;2024-03-23T03:49:45;10.10;99.90
47382;DHT22;33128;51.580;5.170;2024-03-23T03:52:10;10.10;99.90
47382;DHT22;33128;51.580;5.170;2024-03-23T03:54:39;9.90;99.90
47382;DHT22;33128;51.580;5.170;2024-03-23T03:57:04;10.00;99.90
47382;DHT22;33128;51.580;5.170;2024-03-23T03:59:30;10.10;99.90
47382;DHT22;33128;51.580;5.170;2024-03-23T04:01:55;10.20;99.90
47382;DHT22;33128;51.580;5.170;2024-03-23T04:04:21;10.20;99.90
47382;DHT22;33128;51.580;5.170;2024-03-23T04:06:47;10.20;99.90
47382;DHT22;33128;51.580;5.170;2024-03-23T04:09:13;10.20;99.90
47382;DHT22;33128;51.580;5.170;2024-03-23T04:11:38;10.10;99.90
47382;DHT22;33128;51.580;5.170;2024-03-23T04:14:04;10.10;99.90
47382;DHT22;33128;51.580;5.170;2024-03-23T04:16:34;9.90;99.90
47382;DHT22;33128;51.580;5.170;2024-03-23T04:19:00;9.80;99.90
47382;DHT22;33128;51.580;5.170;2024-03-23T04:21:26;9.70;99.90
47382;DHT22;33128;51.580;5.170;2024-03-23T04:23:51;9.70;99.90
47382;DHT22;33128;51.580;5.170;2024-03-23T04:26:20;9.60;99.90
47382;DHT22;33128;51.580;5.170;2024-03-23T04:28:45;9.50;99.90
47382;DHT22;33128;51.580;5.170;2024-03-23T04:31:11;9.40;99.90
47382;DHT22;33128;51.580;5.170;2024-03-23T04:33:36;9.40;99.90
47382;DHT22;33128;51.580;5.170;2024-03-23T04:36:02;9.40;99.90
47382;DHT22;33128;51.580;5.170;2024-03-23T04:38:28;9.30;99.90
47382;DHT22;33128;51.580;5.170;2024-03-23T04:40:59;9.40;99.90
47382;DHT22;33128;51.580;5.170;2024-03-23T04:43:28;9.50;99.90
47382;DHT22;33128;51.580;5.170;2024-03-23T04:45:57;9.40;99.90
47382;DHT22;33128;51.580;5.170;2024-03-23T04:48:25;9.40;99.90
47382;DHT22;33128;51.580;5.170;2024-03-23T04:50:55;9.40;99.90
47382;DHT22;33128;51.580;5.170;2024-03-23T04:53:21;9.30;99.90
47382;DHT22;33128;51.580;5.170;2024-03-23T04:55:47;9.40;99.90
47382;DHT22;33128;51.580;5.170;2024-03-23T04:58:12;9.50;99.90
47382;DHT22;33128;51.580;5.170;2024-03-23T05:00:38;9.30;99.90
47382;DHT22;33128;51.580;5.170;2024-03-23T05:03:04;9.30;99.90
47382;DHT22;33128;51.580;5.170;2024-03-23T05:05:29;9.20;99.90
47382;DHT22;33128;51.580;5.170;2024-03-23T05:07:55;9.30;99.90
47382;DHT22;33128;51.580;5.170;2024-03-23T05:10:21;9.20;99.90
47382;DHT22;33128;51.580;5.170;2024-03-23T05:12:46;9.10;99.90
47382;DHT22;33128;51.580;5.170;2024-03-23T05:15:14;9.10;99.90
47382;DHT22;33128;51.580;5.170;2024-03-23T05:17:40;9.20;99.90
47382;DHT22;33128;51.580;5.170;2024-03-23T05:20:08;9.20;99.90
47382;DHT22;33128;51.580;5.170;2024-03-23T05:22:38;9.10;99.90
47382;DHT22;33128;51.580;5.170;2024-03-23T05:25:04;9.10;99.90
47382;DHT22;33128;51.580;5.170;2024-03-23T05:27:32;9.10;99.90
47382;DHT22;33128;51.580;5.170;2024-03-23T05:29:58;9.10;99.90
47382;DHT22;33128;51.580;5.170;2024-03-23T05:32:24;9.10;99.90
47382;DHT22;33128;51.580;5.170;2024-03-23T05:34:50;9.00;99.90
47382;DHT22;33128;51.580;5.170;2024-03-23T05:37:21;9.00;99.90
47382;DHT22;33128;51.580;5.170;2024-03-23T05:39:47;9.00;99.90
47382;DHT22;33128;51.580;5.170;2024-03-23T05:42:18;9.20;99.90
47382;DHT22;33128;51.580;5.170;2024-03-23T05:44:45;9.20;99.90
47382;DHT22;33128;51.580;5.170;2024-03-23T05:47:11;9.30;99.90
47382;DHT22;33128;51.580;5.170;2024-03-23T05:49:38;9.30;99.90
47382;DHT22;33128;51.580;5.170;2024-03-23T05:52:09;9.40;99.90
47382;DHT22;33128;51.580;5.170;2024-03-23T05:54:38;9.40;99.90
47382;DHT22;33128;51.580;5.170;2024-03-23T05:57:04;9.40;99.90
47382;DHT22;33128;51.580;5.170;2024-03-23T05:59:39;9.50;99.90
47382;DHT22;33128;51.580;5.170;2024-03-23T06:02:04;9.50;99.90
47382;DHT22;33128;51.580;5.170;2024-03-23T06:04:30;9.70;99.90
47382;DHT22;33128;51.580;5.170;2024-03-23T06:06:55;9.70;99.90
47382;DHT22;33128;51.580;5.170;2024-03-23T06:09:23;9.70;99.90
47382;DHT22;33128;51.580;5.170;2024-03-23T06:11:48;9.80;99.90
47382;DHT22;33128;51.580;5.170;2024-03-23T06:14:14;9.80;99.90
47382;DHT22;33128;51.580;5.170;2024-03-23T06:16:40;9.80;99.90
47382;DHT22;33128;51.580;5.170;2024-03-23T06:19:05;9.80;99.90
47382;DHT22;33128;51.580;5.170;2024-03-23T06:21:32;9.90;99.90
47382;DHT22;33128;51.580;5.170;2024-03-23T06:23:58;9.90;99.90
47382;DHT22;33128;51.580;5.170;2024-03-23T06:26:23;10.00;99.90
47382;DHT22;33128;51.580;5.170;2024-03-23T06:28:49;10.10;99.90
47382;DHT22;33128;51.580;5.170;2024-03-23T06:31:15;10.10;99.90
47382;DHT22;33128;51.580;5.170;2024-03-23T06:33:40;10.10;99.90
47382;DHT22;33128;51.580;5.170;2024-03-23T06:36:09;10.00;99.90
47382;DHT22;33128;51.580;5.170;2024-03-23T06:38:36;9.90;99.90
47382;DHT22;33128;51.580;5.170;2024-03-23T06:41:05;9.90;99.90
47382;DHT22;33128;51.580;5.170;2024-03-23T06:43:31;9.90;99.90
47382;DHT22;33128;51.580;5.170;2024-03-23T06:45:59;10.40;99.90
47382;DHT22;33128;51.580;5.170;2024-03-23T06:48:25;10.70;99.90
47382;DHT22;33128;51.580;5.170;2024-03-23T06:50:58;10.90;99.90
47382;DHT22;33128;51.580;5.170;2024-03-23T06:53:24;11.10;99.90
47382;DHT22;33128;51.580;5.170;2024-03-23T06:55:53;11.10;99.90
47382;DHT22;33128;51.580;5.170;2024-03-23T06:58:27;11.20;99.90
47382;DHT22;33128;51.580;5.170;2024-03-23T07:00:58;11.30;99.90
47382;DHT22;33128;51.580;5.170;2024-03-23T07:03:24;11.30;99.90
47382;DHT22;33128;51.580;5.170;2024-03-23T07:05:51;11.30;99.90
47382;DHT22;33128;51.580;5.170;2024-03-23T07:08:16;11.40;99.90
47382;DHT22;33128;51.580;5.170;2024-03-23T07:10:46;11.40;99.90
47382;DHT22;33128;51.580;5.170;2024-03-23T07:13:12;11.40;99.90
47382;DHT22;33128;51.580;5.170;2024-03-23T07:15:37;11.50;99.90
47382;DHT22;33128;51.580;5.170;2024-03-23T07:18:03;11.60;99.90
47382;DHT22;33128;51.580;5.170;2024-03-23T07:20:29;11.60;99.90
47382;DHT22;33128;51.580;5.170;2024-03-23T07:22:56;11.60;99.90
47382;DHT22;33128;51.580;5.170;2024-03-23T07:25:25;11.60;99.90
47382;DHT22;33128;51.580;5.170;2024-03-23T07:27:54;11.60;99.90
47382;DHT22;33128;51.580;5.170;2024-03-23T07:30:20;11.70;99.90
47382;DHT22;33128;51.580;5.170;2024-03-23T07:32:45;11.70;99.90
47382;DHT22;33128;51.580;5.170;2024-03-23T07:35:11;11.70;99.90
47382;DHT22;33128;51.580;5.170;2024-03-23T07:37:36;11.80;99.90
47382;DHT22;33128;51.580;5.170;2024-03-23T07:40:02;11.80;99.90
47382;DHT22;33128;51.580;5.170;2024-03-23T07:42:29;11.80;99.90
47382;DHT22;33128;51.580;5.170;2024-03-23T07:44:54;11.80;99.90
47382;DHT22;33128;51.580;5.170;2024-03-23T07:47:22;11.80;99.90
47382;DHT22;33128;51.580;5.170;2024-03-23T07:49:47;11.80;99.90
47382;DHT22;33128;51.580;5.170;2024-03-23T07:52:13;11.90;99.90
47382;DHT22;33128;51.580;5.170;2024-03-23T07:54:42;11.90;99.90
47382;DHT22;33128;51.580;5.170;2024-03-23T07:57:07;12.00;99.90
47382;DHT22;33128;51.580;5.170;2024-03-23T07:59:33;12.00;99.90
47382;DHT22;33128;51.580;5.170;2024-03-23T08:01:59;12.00;99.90
47382;DHT22;33128;51.580;5.170;2024-03-23T08:04:26;12.00;99.90
47382;DHT22;33128;51.580;5.170;2024-03-23T08:06:52;12.00;99.90
47382;DHT22;33128;51.580;5.170;2024-03-23T08:09:17;12.10;99.90
47382;DHT22;33128;51.580;5.170;2024-03-23T08:11:44;12.00;99.90
47382;DHT22;33128;51.580;5.170;2024-03-23T08:14:11;12.10;99.90
47382;DHT22;33128;51.580;5.170;2024-03-23T08:16:36;12.10;99.90
47382;DHT22;33128;51.580;5.170;2024-03-23T08:19:05;12.20;99.90
47382;DHT22;33128;51.580;5.170;2024-03-23T08:21:30;12.10;99.90
47382;DHT22;33128;51.580;5.170;2024-03-23T08:23:59;12.20;99.90
47382;DHT22;33128;51.580;5.170;2024-03-23T08:26:34;12.20;99.90
47382;DHT22;33128;51.580;5.170;2024-03-23T08:28:59;12.20;99.90
47382;DHT22;33128;51.580;5.170;2024-03-23T08:31:25;12.30;99.90
47382;DHT22;33128;51.580;5.170;2024-03-23T08:33:50;12.20;99.90
47382;DHT22;33128;51.580;5.170;2024-03-23T08:36:16;12.30;99.90
47382;DHT22;33128;51.580;5.170;2024-03-23T08:38:42;12.30;99.90
47382;DHT22;33128;51.580;5.170;2024-03-23T08:41:09;12.30;99.90
47382;DHT22;33128;51.580;5.170;2024-03-23T08:43:41;12.30;99.90
47382;DHT22;33128;51.580;5.170;2024-03-23T08:46:16;12.30;99.90
47382;DHT22;33128;51.580;5.170;2024-03-23T08:48:45;12.30;99.90
47382;DHT22;33128;51.580;5.170;2024-03-23T08:51:13;12.30;99.90
47382;DHT22;33128;51.580;5.170;2024-03-23T08:53:39;12.40;99.90
47382;DHT22;33128;51.580;5.170;2024-03-23T08:56:07;12.30;99.90
47382;DHT22;33128;51.580;5.170;2024-03-23T08:58:33;12.40;99.90
47382;DHT22;33128;51.580;5.170;2024-03-23T09:01:09;12.30;99.90
47382;DHT22;33128;51.580;5.170;2024-03-23T09:03:36;12.30;99.90
47382;DHT22;33128;51.580;5.170;2024-03-23T09:06:13;12.30;99.90
47382;DHT22;33128;51.580;5.170;2024-03-23T09:08:38;12.30;99.90
47382;DHT22;33128;51.580;5.170;2024-03-23T09:11:07;12.40;99.90
47382;DHT22;33128;51.580;5.170;2024-03-23T09:13:34;12.40;99.90
47382;DHT22;33128;51.580;5.170;2024-03-23T09:16:00;12.50;99.90
47382;DHT22;33128;51.580;5.170;2024-03-23T09:18:25;12.50;99.90
47382;DHT22;33128;51.580;5.170;2024-03-23T09:20:51;12.50;99.90
47382;DHT22;33128;51.580;5.170;2024-03-23T09:23:18;12.50;99.90
47382;DHT22;33128;51.580;5.170;2024-03-23T09:25:44;12.50;99.90
47382;DHT22;33128;51.580;5.170;2024-03-23T09:28:09;12.50;99.90
47382;DHT22;33128;51.580;5.170;2024-03-23T09:30:36;12.60;99.90
47382;DHT22;33128;51.580;5.170;2024-03-23T09:33:07;12.60;99.90
47382;DHT22;33128;51.580;5.170;2024-03-23T09:35:39;12.70;99.90
47382;DHT22;33128;51.580;5.170;2024-03-23T09:38:05;12.70;99.90
47382;DHT22;33128;51.580;5.170;2024-03-23T09:40:33;12.80;99.90
47382;DHT22;33128;51.580;5.170;2024-03-23T09:42:59;12.70;99.90
47382;DHT22;33128;51.580;5.170;2024-03-23T09:45:28;12.70;99.90
47382;DHT22;33128;51.580;5.170;2024-03-23T09:47:57;12.80;99.90
47382;DHT22;33128;51.580;5.170;2024-03-23T09:50:22;12.80;99.90
47382;DHT22;33128;51.580;5.170;2024-03-23T09:52:48;12.80;99.90
47382;DHT22;33128;51.580;5.170;2024-03-23T09:55:14;12.70;99.90
47382;DHT22;33128;51.580;5.170;2024-03-23T09:57:41;12.80;99.90
47382;DHT22;33128;51.580;5.170;2024-03-23T10:00:07;12.80;99.90
47382;DHT22;33128;51.580;5.170;2024-03-23T10:02:37;12.80;99.90
47382;DHT22;33128;51.580;5.170;2024-03-23T10:05:16;12.90;99.90
47382;DHT22;33128;51.580;5.170;2024-03-23T10:07:45;12.90;99.90
47382;DHT22;33128;51.580;5.170;2024-03-23T10:10:13;13.00;99.90
47382;DHT22;33128;51.580;5.170;2024-03-23T10:12:48;13.00;99.90
47382;DHT22;33128;51.580;5.170;2024-03-23T10:15:25;13.00;99.90
47382;DHT22;33128;51.580;5.170;2024-03-23T10:17:51;13.00;99.90
47382;DHT22;33128;51.580;5.170;2024-03-23T10:20:23;12.90;99.90
47382;DHT22;33128;51.580;5.170;2024-03-23T10:22:52;12.90;99.90
47382;DHT22;33128;51.580;5.170;2024-03-23T10:25:22;12.90;99.90
47382;DHT22;33128;51.580;5.170;2024-03-23T10:27:58;13.00;99.90
47382;DHT22;33128;51.580;5.170;2024-03-23T10:30:27;13.00;99.90
47382;DHT22;33128;51.580;5.170;2024-03-23T10:33:09;13.00;99.90
47382;DHT22;33128;51.580;5.170;2024-03-23T10:35:36;13.00;99.90
47382;DHT22;33128;51.580;5.170;2024-03-23T10:38:06;13.10;99.90
47382;DHT22;33128;51.580;5.170;2024-03-23T10:40:34;13.10;99.90
47382;DHT22;33128;51.580;5.170;2024-03-23T10:43:00;13.10;99.90
47382;DHT22;33128;51.580;5.170;2024-03-23T10:45:28;13.10;99.90
47382;DHT22;33128;51.580;5.170;2024-03-23T10:47:53;13.10;99.90
47382;DHT22;33128;51.580;5.170;2024-03-23T10:50:19;13.10;99.90
47382;DHT22;33128;51.580;5.170;2024-03-23T10:52:48;13.20;99.90
47382;DHT22;33128;51.580;5.170;2024-03-23T10:55:18;13.20;99.90
47382;DHT22;33128;51.580;5.170;2024-03-23T10:57:51;13.30;99.90
47382;DHT22;33128;51.580;5.170;2024-03-23T11:00:18;13.40;99.90
47382;DHT22;33128;51.580;5.170;2024-03-23T11:02:44;13.30;99.90
47382;DHT22;33128;51.580;5.170;2024-03-23T11:05:29;13.30;99.90
47382;DHT22;33128;51.580;5.170;2024-03-23T11:07:58;13.30;99.90
47382;DHT22;33128;51.580;5.170;2024-03-23T11:12:53;13.30;99.90
47382;DHT22;33128;51.580;5.170;2024-03-23T11:15:19;13.30;99.90
47382;DHT22;33128;51.580;5.170;2024-03-23T11:18:03;13.30;99.90
47382;DHT22;33128;51.580;5.170;2024-03-23T11:20:32;13.30;99.90
47382;DHT22;33128;51.580;5.170;2024-03-23T11:22:57;13.50;99.90
47382;DHT22;33128;51.580;5.170;2024-03-23T11:25:24;13.40;99.90
47382;DHT22;33128;51.580;5.170;2024-03-23T11:27:51;13.30;99.90
47382;DHT22;33128;51.580;5.170;2024-03-23T11:30:24;13.30;99.90
47382;DHT22;33128;51.580;5.170;2024-03-23T11:32:55;13.40;99.90
47382;DHT22;33128;51.580;5.170;2024-03-23T11:35:34;13.50;99.90
47382;DHT22;33128;51.580;5.170;2024-03-23T11:40:32;13.60;99.90
47382;DHT22;33128;51.580;5.170;2024-03-23T11:43:00;13.60;99.90
47382;DHT22;33128;51.580;5.170;2024-03-23T11:45:37;13.90;99.90
47382;DHT22;33128;51.580;5.170;2024-03-23T11:50:30;13.90;99.90
47382;DHT22;33128;51.580;5.170;2024-03-23T11:55:57;14.00;99.90
47382;DHT22;33128;51.580;5.170;2024-03-23T11:58:27;14.00;99.90
47382;DHT22;33128;51.580;5.170;2024-03-23T12:01:00;14.00;99.90
47382;DHT22;33128;51.580;5.170;2024-03-23T12:03:30;14.00;99.90
47382;DHT22;33128;51.580;5.170;2024-03-23T12:06:01;14.30;99.90
47382;DHT22;33128;51.580;5.170;2024-03-23T12:11:09;14.30;99.90
47382;DHT22;33128;51.580;5.170;2024-03-23T12:13:36;14.30;99.90
47382;DHT22;33128;51.580;5.170;2024-03-23T12:18:44;14.20;99.90
47382;DHT22;33128;51.580;5.170;2024-03-23T12:21:10;13.90;99.90
47382;DHT22;33128;51.580;5.170;2024-03-23T12:23:41;13.90;99.90
47382;DHT22;33128;51.580;5.170;2024-03-23T12:26:08;13.80;99.90
47382;DHT22;33128;51.580;5.170;2024-03-23T12:28:34;13.90;99.90
47382;DHT22;33128;51.580;5.170;2024-03-23T12:31:03;13.80;99.90
47382;DHT22;33128;51.580;5.170;2024-03-23T12:33:28;13.90;99.90
47382;DHT22;33128;51.580;5.170;2024-03-23T12:35:54;13.90;99.90
47382;DHT22;33128;51.580;5.170;2024-03-23T12:38:20;13.90;99.90
47382;DHT22;33128;51.580;5.170;2024-03-23T12:40:49;14.00;99.90
47382;DHT22;33128;51.580;5.170;2024-03-23T12:43:15;14.00;99.90
47382;DHT22;33128;51.580;5.170;2024-03-23T12:45:41;14.00;99.90
47382;DHT22;33128;51.580;5.170;2024-03-23T12:48:07;14.20;99.90
47382;DHT22;33128;51.580;5.170;2024-03-23T12:50:35;14.10;99.90
47382;DHT22;33128;51.580;5.170;2024-03-23T12:53:01;14.00;99.90
47382;DHT22;33128;51.580;5.170;2024-03-23T12:55:26;14.00;99.90
47382;DHT22;33128;51.580;5.170;2024-03-23T12:57:52;14.10;99.90
47382;DHT22;33128;51.580;5.170;2024-03-23T13:00:17;14.10;99.90
47382;DHT22;33128;51.580;5.170;2024-03-23T13:02:44;14.10;99.90
47382;DHT22;33128;51.580;5.170;2024-03-23T13:05:10;14.10;99.90
47382;DHT22;33128;51.580;5.170;2024-03-23T13:07:35;13.90;99.90
47382;DHT22;33128;51.580;5.170;2024-03-23T13:10:03;14.00;99.90
47382;DHT22;33128;51.580;5.170;2024-03-23T13:12:29;14.00;99.90
47382;DHT22;33128;51.580;5.170;2024-03-23T13:14:54;14.00;99.90
47382;DHT22;33128;51.580;5.170;2024-03-23T13:17:20;14.00;99.90
47382;DHT22;33128;51.580;5.170;2024-03-23T13:19:45;14.00;99.90
47382;DHT22;33128;51.580;5.170;2024-03-23T13:22:11;14.00;99.90
47382;DHT22;33128;51.580;5.170;2024-03-23T13:24:37;14.00;99.90
47382;DHT22;33128;51.580;5.170;2024-03-23T13:27:05;14.10;99.90
47382;DHT22;33128;51.580;5.170;2024-03-23T13:29:33;14.10;99.90
47382;DHT22;33128;51.580;5.170;2024-03-23T13:31:59;14.10;99.90
47382;DHT22;33128;51.580;5.170;2024-03-23T13:34:25;14.10;99.90
47382;DHT22;33128;51.580;5.170;2024-03-23T13:36:51;14.10;99.90
47382;DHT22;33128;51.580;5.170;2024-03-23T13:39:17;14.10;99.90
47382;DHT22;33128;51.580;5.170;2024-03-23T13:41:44;14.10;99.90
47382;DHT22;33128;51.580;5.170;2024-03-23T13:44:13;14.00;99.90
47382;DHT22;33128;51.580;5.170;2024-03-23T13:46:42;14.10;99.90
47382;DHT22;33128;51.580;5.170;2024-03-23T13:49:29;14.10;99.90
47382;DHT22;33128;51.580;5.170;2024-03-23T13:51:56;14.00;99.90
47382;DHT22;33128;51.580;5.170;2024-03-23T13:54:23;14.00;99.90
47382;DHT22;33128;51.580;5.170;2024-03-23T13:56:53;14.10;99.90
47382;DHT22;33128;51.580;5.170;2024-03-23T13:59:19;14.10;99.90
47382;DHT22;33128;51.580;5.170;2024-03-23T14:01:46;14.10;99.90
47382;DHT22;33128;51.580;5.170;2024-03-23T14:04:13;14.00;99.90
47382;DHT22;33128;51.580;5.170;2024-03-23T14:06:38;14.00;99.90
47382;DHT22;33128;51.580;5.170;2024-03-23T14:09:05;13.90;99.90
47382;DHT22;33128;51.580;5.170;2024-03-23T14:11:37;13.90;99.90
47382;DHT22;33128;51.580;5.170;2024-03-23T14:14:03;13.80;99.90
47382;DHT22;33128;51.580;5.170;2024-03-23T14:16:32;13.90;99.90
47382;DHT22;33128;51.580;5.170;2024-03-23T14:18:58;14.00;99.90
47382;DHT22;33128;51.580;5.170;2024-03-23T14:21:24;14.00;99.90
47382;DHT22;33128;51.580;5.170;2024-03-23T14:23:49;14.00;99.90
47382;DHT22;33128;51.580;5.170;2024-03-23T14:26:15;14.00;99.90
47382;DHT22;33128;51.580;5.170;2024-03-23T14:28:41;14.00;99.90
47382;DHT22;33128;51.580;5.170;2024-03-23T14:31:06;14.00;99.90
47382;DHT22;33128;51.580;5.170;2024-03-23T14:33:36;13.90;99.90
47382;DHT22;33128;51.580;5.170;2024-03-23T14:36:03;13.90;99.90
47382;DHT22;33128;51.580;5.170;2024-03-23T14:38:29;13.90;99.90
47382;DHT22;33128;51.580;5.170;2024-03-23T14:41:01;13.80;99.90
47382;DHT22;33128;51.580;5.170;2024-03-23T14:43:31;13.80;99.90
47382;DHT22;33128;51.580;5.170;2024-03-23T14:48:39;13.70;99.90
47382;DHT22;33128;51.580;5.170;2024-03-23T14:51:05;13.70;99.90
47382;DHT22;33128;51.580;5.170;2024-03-23T14:53:35;13.70;99.90
47382;DHT22;33128;51.580;5.170;2024-03-23T14:56:02;13.70;99.90
47382;DHT22;33128;51.580;5.170;2024-03-23T14:58:28;13.70;99.90
47382;DHT22;33128;51.580;5.170;2024-03-23T15:01:04;13.70;99.90
47382;DHT22;33128;51.580;5.170;2024-03-23T15:03:30;13.70;99.90
47382;DHT22;33128;51.580;5.170;2024-03-23T15:05:59;13.50;99.90
47382;DHT22;33128;51.580;5.170;2024-03-23T15:08:25;13.50;99.90
47382;DHT22;33128;51.580;5.170;2024-03-23T15:10:54;13.50;99.90
47382;DHT22;33128;51.580;5.170;2024-03-23T15:13:20;13.50;99.90
47382;DHT22;33128;51.580;5.170;2024-03-23T15:15:48;13.50;99.90
47382;DHT22;33128;51.580;5.170;2024-03-23T15:18:17;13.50;99.90
47382;DHT22;33128;51.580;5.170;2024-03-23T15:20:58;13.50;99.90
47382;DHT22;33128;51.580;5.170;2024-03-23T15:23:35;13.50;99.90
47382;DHT22;33128;51.580;5.170;2024-03-23T15:26:02;13.50;99.90
47382;DHT22;33128;51.580;5.170;2024-03-23T15:28:28;13.50;99.90
47382;DHT22;33128;51.580;5.170;2024-03-23T15:31:14;13.40;99.90
47382;DHT22;33128;51.580;5.170;2024-03-23T15:33:40;13.50;99.90
47382;DHT22;33128;51.580;5.170;2024-03-23T15:36:06;13.40;99.90
47382;DHT22;33128;51.580;5.170;2024-03-23T15:38:32;13.40;99.90
47382;DHT22;33128;51.580;5.170;2024-03-23T15:40:58;13.30;99.90
47382;DHT22;33128;51.580;5.170;2024-03-23T15:43:25;13.40;99.90
47382;DHT22;33128;51.580;5.170;2024-03-23T15:45:58;13.40;99.90
47382;DHT22;33128;51.580;5.170;2024-03-23T15:48:27;13.40;99.90
47382;DHT22;33128;51.580;5.170;2024-03-23T15:50:54;13.30;99.90
47382;DHT22;33128;51.580;5.170;2024-03-23T15:53:21;13.30;99.90
47382;DHT22;33128;51.580;5.170;2024-03-23T15:55:59;13.20;99.90
47382;DHT22;33128;51.580;5.170;2024-03-23T15:58:25;13.20;99.90
47382;DHT22;33128;51.580;5.170;2024-03-23T16:00:59;13.20;99.90
47382;DHT22;33128;51.580;5.170;2024-03-23T16:03:25;13.20;99.90
47382;DHT22;33128;51.580;5.170;2024-03-23T16:05:56;13.30;99.90
47382;DHT22;33128;51.580;5.170;2024-03-23T16:08:25;13.30;99.90
47382;DHT22;33128;51.580;5.170;2024-03-23T16:10:51;13.30;99.90
47382;DHT22;33128;51.580;5.170;2024-03-23T16:13:18;13.30;99.90
47382;DHT22;33128;51.580;5.170;2024-03-23T16:16:00;13.30;99.90
47382;DHT22;33128;51.580;5.170;2024-03-23T16:18:26;13.30;99.90
47382;DHT22;33128;51.580;5.170;2024-03-23T16:21:00;13.30;99.90
47382;DHT22;33128;51.580;5.170;2024-03-23T16:23:26;13.30;99.90
47382;DHT22;33128;51.580;5.170;2024-03-23T16:25:54;13.30;99.90
47382;DHT22;33128;51.580;5.170;2024-03-23T16:28:33;13.40;99.90
47382;DHT22;33128;51.580;5.170;2024-03-23T16:31:03;13.50;99.90
47382;DHT22;33128;51.580;5.170;2024-03-23T16:33:30;13.60;99.90
47382;DHT22;33128;51.580;5.170;2024-03-23T16:36:06;13.70;99.90
47382;DHT22;33128;51.580;5.170;2024-03-23T16:38:33;13.60;99.90
47382;DHT22;33128;51.580;5.170;2024-03-23T16:41:10;13.60;99.90
47382;DHT22;33128;51.580;5.170;2024-03-23T16:43:41;13.50;99.90
47382;DHT22;33128;51.580;5.170;2024-03-23T16:46:08;13.50;99.90